Time,TemperatureF,DewpointF,PressureIn,WindDirection,WindDirectionDegrees,WindSpeedMPH,WindSpeedGustMPH,Humidity,HourlyPrecipIn,Conditions,Clouds,dailyrainin,SoftwareType,DateUTC
2013-01-12 00:01:00,57.9,57.9,30.17,WSW,253,5.4,8.1,100,0.00, ,,-99.99,VWS V12.07,2013-01-12 05:01:00,
2013-01-12 00:02:00,58.2,58.2,30.18,West,263,5.8,8.3,100,0.00, ,,-99.99,VWS V12.07,2013-01-12 05:02:00,
2013-01-12 00:08:00,58.2,58.2,30.18,SW,218,3.4,9.5,100,0.00, ,,-99.99,VWS V12.07,2013-01-12 05:08:00,
2013-01-12 00:13:00,58.0,58.0,30.18,SW,216,0.0,9.5,100,0.00, ,,-99.99,VWS V12.07,2013-01-12 05:13:00,
2013-01-12 00:18:00,58.1,58.1,30.18,SSW,213,0.0,7.4,100,0.00, ,,-99.99,VWS V12.07,2013-01-12 05:18:00,
2013-01-12 00:23:00,57.8,57.8,30.18,WSW,250,8.0,11.0,100,0.00, ,,-99.99,VWS V12.07,2013-01-12 05:23:00,
2013-01-12 00:28:00,57.8,57.8,30.18,SW,229,9.5,11.0,100,0.00, ,,-99.99,VWS V12.07,2013-01-12 05:28:00,
2013-01-12 00:33:00,58.1,58.1,30.17,West,263,8.0,11.1,100,0.00, ,,-99.99,VWS V12.07,2013-01-12 05:33:00,
2013-01-12 00:38:00,57.8,57.8,30.17,WSW,249,6.3,9.8,100,0.00, ,,-99.99,VWS V12.07,2013-01-12 05:38:00,
2013-01-12 00:43:00,57.9,57.9,30.17,West,261,7.8,11.2,100,0.00, ,,-99.99,VWS V12.07,2013-01-12 05:43:00,
2013-01-12 00:48:00,57.8,57.8,30.17,SSW,205,6.6,11.2,100,0.00, ,,-99.99,VWS V12.07,2013-01-12 05:48:00,
2013-01-12 00:53:00,57.4,57.4,30.17,SW,223,6.0,11.2,100,0.00, ,,-99.99,VWS V12.07,2013-01-12 05:53:00,
2013-01-12 00:58:00,57.6,57.6,30.17,SSW,208,3.5,4.9,100,0.00, ,,-99.99,VWS V12.07,2013-01-12 05:58:00,
2013-01-12 01:00:00,57.3,57.3,30.17,SSW,208,0.0,4.9,100,0.00, ,,-99.99,VWS V12.07,2013-01-12 06:00:00,
2013-01-12 01:05:00,57.0,57.0,30.17,WSW,250,0.0,9.9,100,0.00, ,,-99.99,VWS V12.07,2013-01-12 06:05:00,
2013-01-12 01:10:00,57.0,57.0,30.17,WSW,249,6.0,9.9,100,0.00, ,,-99.99,VWS V12.07,2013-01-12 06:10:00,
2013-01-12 01:15:00,57.2,57.2,30.17,WSW,242,0.0,9.9,100,0.00, ,,-99.99,VWS V12.07,2013-01-12 06:15:00,
2013-01-12 01:20:00,57.4,57.4,30.17,SW,230,5.7,6.5,100,0.00, ,,-99.99,VWS V12.07,2013-01-12 06:20:00,
2013-01-12 01:25:00,56.6,56.6,30.17,SW,228,6.5,7.5,100,0.00, ,,-99.99,VWS V12.07,2013-01-12 06:25:00,
2013-01-12 01:30:00,56.1,56.1,30.17,SW,215,3.3,7.5,100,0.00, ,,-99.99,VWS V12.07,2013-01-12 06:30:00,
2013-01-12 01:36:00,55.6,55.6,30.17,SW,226,3.4,7.5,100,0.00, ,,-99.99,VWS V12.07,2013-01-12 06:36:00,
2013-01-12 01:41:00,55.3,55.3,30.17,SW,228,5.0,7.0,100,0.00, ,,-99.99,VWS V12.07,2013-01-12 06:41:00,
2013-01-12 01:46:00,55.3,55.3,30.17,SW,222,5.9,7.0,100,0.00, ,,-99.99,VWS V12.07,2013-01-12 06:46:00,
2013-01-12 01:51:00,55.3,55.3,30.17,SW,220,6.3,7.7,100,0.00, ,,-99.99,VWS V12.07,2013-01-12 06:51:00,
2013-01-12 01:56:00,55.1,55.1,30.17,SW,236,4.9,7.7,100,0.00, ,,-99.99,VWS V12.07,2013-01-12 06:56:00,
2013-01-12 02:01:00,55.2,55.2,30.17,SSW,209,0.0,5.8,100,0.00, ,,-99.99,VWS V12.07,2013-01-12 07:01:00,
2013-01-12 02:06:00,55.4,55.4,30.17,SSW,209,0.0,5.8,100,0.00, ,,-99.99,VWS V12.07,2013-01-12 07:06:00,
2013-01-12 02:11:00,55.5,55.5,30.17,SSW,209,0.0,5.8,100,0.00, ,,-99.99,VWS V12.07,2013-01-12 07:11:00,
2013-01-12 02:16:00,55.4,55.4,30.17,SSW,209,0.0,5.8,100,0.00, ,,-99.99,VWS V12.07,2013-01-12 07:16:00,
2013-01-12 02:21:00,55.3,55.3,30.17,SSW,209,0.0,0.0,100,0.00, ,,-99.99,VWS V12.07,2013-01-12 07:21:00,
2013-01-12 02:26:00,55.5,55.5,30.17,SSW,209,0.0,0.0,100,0.00, ,,-99.99,VWS V12.07,2013-01-12 07:26:00,
2013-01-12 02:31:00,55.1,55.1,30.16,SSW,209,0.0,0.0,100,0.00, ,,-99.99,VWS V12.07,2013-01-12 07:31:00,
2013-01-12 02:36:00,54.9,54.9,30.16,SSW,209,0.0,0.0,100,0.00, ,,-99.99,VWS V12.07,2013-01-12 07:36:00,
2013-01-12 02:41:00,55.6,55.6,30.17,SSW,209,0.0,0.0,100,0.00, ,,-99.99,VWS V12.07,2013-01-12 07:41:00,
2013-01-12 02:46:00,56.3,56.3,30.17,SSW,209,0.0,0.0,100,0.00, ,,-99.99,VWS V12.07,2013-01-12 07:46:00,
2013-01-12 02:51:00,56.5,56.5,30.16,SSW,209,0.0,0.0,100,0.00, ,,-99.99,VWS V12.07,2013-01-12 07:51:00,
2013-01-12 02:56:00,56.4,56.4,30.16,WSW,243,6.6,6.7,100,0.00, ,,-99.99,VWS V12.07,2013-01-12 07:56:00,
2013-01-12 03:01:00,56.2,56.2,30.16,SSW,211,3.3,9.9,100,0.00, ,,-99.99,VWS V12.07,2013-01-12 08:01:00,
2013-01-12 03:06:00,56.9,56.9,30.16,West,271,5.7,9.9,100,0.00, ,,-99.99,VWS V12.07,2013-01-12 08:06:00,
2013-01-12 03:11:00,56.6,56.6,30.17,WSW,246,5.8,9.9,100,0.00, ,,-99.99,VWS V12.07,2013-01-12 08:11:00,
2013-01-12 03:16:00,56.4,56.4,30.16,SW,233,4.4,9.9,100,0.00, ,,-99.99,VWS V12.07,2013-01-12 08:16:00,
2013-01-12 03:21:00,56.4,56.4,30.16,SW,235,0.0,0.0,100,0.00, ,,-99.99,VWS V12.07,2013-01-12 08:21:00,
2013-01-12 03:26:00,56.3,56.3,30.16,SSW,205,3.1,7.8,100,0.00, ,,-99.99,VWS V12.07,2013-01-12 08:26:00,
2013-01-12 03:31:00,56.7,56.7,30.17,SW,233,5.7,8.7,100,0.00, ,,-99.99,VWS V12.07,2013-01-12 08:31:00,
2013-01-12 03:36:00,56.4,56.4,30.16,WSW,246,0.0,8.7,100,0.00, ,,-99.99,VWS V12.07,2013-01-12 08:36:00,
2013-01-12 03:41:00,56.8,56.8,30.16,West,263,0.0,7.8,100,0.00, ,,-99.99,VWS V12.07,2013-01-12 08:41:00,
2013-01-12 03:46:00,56.6,56.6,30.16,WSW,237,4.5,9.6,100,0.00, ,,-99.99,VWS V12.07,2013-01-12 08:46:00,
2013-01-12 03:51:00,56.5,56.5,30.16,WSW,242,6.1,9.6,100,0.00, ,,-99.99,VWS V12.07,2013-01-12 08:51:00,
2013-01-12 03:56:00,56.4,56.4,30.16,SW,222,0.0,9.6,100,0.00, ,,-99.99,VWS V12.07,2013-01-12 08:56:00,
2013-01-12 04:01:00,56.4,56.4,30.16,WSW,249,7.6,9.3,100,0.00, ,,-99.99,VWS V12.07,2013-01-12 09:01:00,
2013-01-12 04:06:00,56.3,56.3,30.16,WSW,243,3.4,9.3,100,0.00, ,,-99.99,VWS V12.07,2013-01-12 09:06:00,
2013-01-12 04:11:00,56.0,56.0,30.16,SW,220,5.7,9.3,100,0.00, ,,-99.99,VWS V12.07,2013-01-12 09:11:00,
2013-01-12 04:16:00,56.0,56.0,30.16,West,265,5.3,9.3,100,0.00, ,,-99.99,VWS V12.07,2013-01-12 09:16:00,
2013-01-12 04:21:00,56.0,56.0,30.15,SW,235,5.5,8.8,100,0.00, ,,-99.99,VWS V12.07,2013-01-12 09:21:00,
2013-01-12 04:27:00,56.0,56.0,30.15,WSW,240,7.8,8.8,100,0.00, ,,-99.99,VWS V12.07,2013-01-12 09:27:00,
2013-01-12 04:32:00,56.7,56.7,30.15,SW,229,0.0,8.8,100,0.00, ,,-99.99,VWS V12.07,2013-01-12 09:32:00,
2013-01-12 04:37:00,56.2,56.2,30.15,SW,229,3.0,3.0,100,0.00, ,,-99.99,VWS V12.07,2013-01-12 09:37:00,
2013-01-12 04:43:00,55.6,55.6,30.15,SW,232,5.8,6.8,100,0.00, ,,-99.99,VWS V12.07,2013-01-12 09:43:00,
2013-01-12 04:49:00,55.9,55.9,30.15,SW,229,6.4,6.8,100,0.00, ,,-99.99,VWS V12.07,2013-01-12 09:49:00,
2013-01-12 04:54:00,56.0,56.0,30.15,SW,222,2.8,7.8,100,0.00, ,,-99.99,VWS V12.07,2013-01-12 09:54:00,
2013-01-12 04:59:00,56.2,56.2,30.15,SW,218,4.3,5.7,100,0.00, ,,-99.99,VWS V12.07,2013-01-12 09:59:00,
2013-01-12 05:04:00,55.7,55.7,30.15,SW,228,4.5,6.6,100,0.00, ,,-99.99,VWS V12.07,2013-01-12 10:04:00,
2013-01-12 05:09:00,56.1,56.1,30.15,SW,218,4.2,6.6,100,0.00, ,,-99.99,VWS V12.07,2013-01-12 10:09:00,
2013-01-12 05:14:00,55.7,55.7,30.15,SW,222,4.7,6.6,100,0.00, ,,-99.99,VWS V12.07,2013-01-12 10:14:00,
2013-01-12 05:19:00,55.4,55.4,30.15,SW,216,5.0,5.3,100,0.00, ,,-99.99,VWS V12.07,2013-01-12 10:19:00,
2013-01-12 05:24:00,55.3,55.3,30.15,SW,229,6.0,6.4,100,0.00, ,,-99.99,VWS V12.07,2013-01-12 10:24:00,
2013-01-12 05:29:00,55.0,55.0,30.15,SW,226,5.8,7.7,100,0.00, ,,-99.99,VWS V12.07,2013-01-12 10:29:00,
2013-01-12 05:35:00,55.2,55.2,30.15,SW,228,0.0,7.7,100,0.00, ,,-99.99,VWS V12.07,2013-01-12 10:35:00,
2013-01-12 05:40:00,55.7,55.7,30.15,SW,228,0.0,0.0,100,0.00, ,,-99.99,VWS V12.07,2013-01-12 10:40:00,
2013-01-12 05:45:00,55.3,55.3,30.15,SW,228,0.0,0.0,100,0.00, ,,-99.99,VWS V12.07,2013-01-12 10:45:00,
2013-01-12 05:51:00,55.2,55.2,30.16,SW,228,0.0,0.0,100,0.00, ,,-99.99,VWS V12.07,2013-01-12 10:51:00,
2013-01-12 05:56:00,55.5,55.5,30.16,SW,228,0.0,0.0,100,0.00, ,,-99.99,VWS V12.07,2013-01-12 10:56:00,
2013-01-12 06:01:00,55.4,55.4,30.16,SW,228,0.0,0.0,100,0.00, ,,-99.99,VWS V12.07,2013-01-12 11:01:00,
2013-01-12 06:06:00,55.1,55.1,30.16,SW,228,0.0,0.0,100,0.00, ,,-99.99,VWS V12.07,2013-01-12 11:06:00,
2013-01-12 06:11:00,54.9,54.9,30.16,SW,228,0.0,0.0,100,0.01, ,,-99.99,VWS V12.07,2013-01-12 11:11:00,
2013-01-12 06:16:00,55.1,55.1,30.16,SW,228,0.0,0.0,100,0.01, ,,-99.99,VWS V12.07,2013-01-12 11:16:00,
2013-01-12 06:21:00,55.2,55.2,30.16,SW,228,0.0,0.0,100,0.01, ,,-99.99,VWS V12.07,2013-01-12 11:21:00,
2013-01-12 06:26:00,54.9,54.9,30.16,SW,228,0.0,0.0,100,0.01, ,,-99.99,VWS V12.07,2013-01-12 11:26:00,
2013-01-12 06:31:00,55.1,55.1,30.16,SW,228,0.0,0.0,100,0.01, ,,-99.99,VWS V12.07,2013-01-12 11:31:00,
2013-01-12 06:36:00,55.0,55.0,30.16,SW,228,0.0,0.0,100,0.01, ,,-99.99,VWS V12.07,2013-01-12 11:36:00,
2013-01-12 06:41:00,55.2,55.2,30.17,SW,228,0.0,0.0,100,0.01, ,,-99.99,VWS V12.07,2013-01-12 11:41:00,
2013-01-12 06:46:00,55.1,55.1,30.17,SW,228,0.0,0.0,100,0.01, ,,-99.99,VWS V12.07,2013-01-12 11:46:00,
2013-01-12 06:51:00,54.9,54.9,30.17,SW,228,0.0,0.0,100,0.01, ,,-99.99,VWS V12.07,2013-01-12 11:51:00,
2013-01-12 06:56:00,55.1,55.1,30.17,SW,228,0.0,0.0,100,0.01, ,,-99.99,VWS V12.07,2013-01-12 11:56:00,
2013-01-12 07:01:00,54.7,54.7,30.17,SW,228,0.0,0.0,100,0.01, ,,-99.99,VWS V12.07,2013-01-12 12:01:00,
2013-01-12 07:06:00,54.7,54.7,30.17,SSW,199,0.0,2.4,100,0.01, ,,-99.99,VWS V12.07,2013-01-12 12:06:00,
2013-01-12 07:11:00,54.6,54.6,30.17,SSW,192,0.0,2.4,100,0.01, ,,-99.99,VWS V12.07,2013-01-12 12:11:00,
2013-01-12 07:16:00,54.7,54.7,30.18,SSW,192,0.0,2.4,100,0.01, ,,-99.99,VWS V12.07,2013-01-12 12:16:00,
2013-01-12 07:21:00,55.3,55.3,30.18,SSW,192,0.0,0.0,100,0.00, ,,-99.99,VWS V12.07,2013-01-12 12:21:00,
2013-01-12 07:26:00,54.7,54.7,30.18,SSW,192,0.0,0.0,100,0.00, ,,-99.99,VWS V12.07,2013-01-12 12:26:00,
2013-01-12 07:31:00,55.1,55.1,30.18,SSW,192,0.0,0.0,100,0.00, ,,-99.99,VWS V12.07,2013-01-12 12:31:00,
2013-01-12 07:36:00,55.0,55.0,30.18,SSW,192,0.0,0.0,100,0.00, ,,-99.99,VWS V12.07,2013-01-12 12:36:00,
2013-01-12 07:41:00,55.1,55.1,30.18,SSW,192,0.0,0.0,100,0.00, ,,-99.99,VWS V12.07,2013-01-12 12:41:00,
2013-01-12 07:46:00,55.7,55.7,30.18,SSW,192,0.0,0.0,100,0.00, ,,-99.99,VWS V12.07,2013-01-12 12:46:00,
2013-01-12 07:51:00,55.6,55.6,30.18,SSW,192,0.0,0.0,100,0.00, ,,-99.99,VWS V12.07,2013-01-12 12:51:00,
2013-01-12 07:56:00,55.7,55.7,30.18,SSW,192,0.0,0.0,100,0.00, ,,-99.99,VWS V12.07,2013-01-12 12:56:00,
2013-01-12 08:01:00,55.8,55.8,30.18,SSW,192,0.0,0.0,100,0.00, ,,-99.99,VWS V12.07,2013-01-12 13:01:00,
2013-01-12 08:06:00,56.1,56.1,30.18,SSW,192,0.0,0.0,100,0.00, ,,-99.99,VWS V12.07,2013-01-12 13:06:00,
2013-01-12 08:11:00,55.7,55.7,30.18,SSW,192,0.0,0.0,100,0.00, ,,-99.99,VWS V12.07,2013-01-12 13:11:00,
2013-01-12 08:16:00,55.8,55.8,30.18,SSW,192,0.0,0.0,100,0.00, ,,-99.99,VWS V12.07,2013-01-12 13:16:00,
2013-01-12 08:21:00,55.9,55.9,30.18,SSW,192,0.0,0.0,100,0.00, ,,-99.99,VWS V12.07,2013-01-12 13:21:00,
2013-01-12 08:26:00,55.5,55.5,30.18,SSW,192,0.0,0.0,100,0.00, ,,-99.99,VWS V12.07,2013-01-12 13:26:00,
2013-01-12 08:31:00,55.8,55.8,30.18,SSW,192,0.0,0.0,100,0.00, ,,-99.99,VWS V12.07,2013-01-12 13:31:00,
2013-01-12 08:36:00,55.3,55.3,30.18,SSW,192,0.0,0.0,100,0.00, ,,-99.99,VWS V12.07,2013-01-12 13:36:00,
2013-01-12 08:41:00,55.2,55.2,30.19,SSW,192,0.0,0.0,100,0.00, ,,-99.99,VWS V12.07,2013-01-12 13:41:00,
2013-01-12 08:46:00,55.4,55.4,30.19,SSW,192,0.0,0.0,100,0.00, ,,-99.99,VWS V12.07,2013-01-12 13:46:00,
2013-01-12 08:51:00,55.4,55.4,30.19,SSW,192,0.0,0.0,100,0.00, ,,-99.99,VWS V12.07,2013-01-12 13:51:00,
2013-01-12 08:56:00,55.5,55.5,30.19,SW,228,0.0,5.3,100,0.00, ,,-99.99,VWS V12.07,2013-01-12 13:56:00,
2013-01-12 09:01:00,55.5,55.5,30.19,SW,222,4.3,5.2,100,0.00, ,,-99.99,VWS V12.07,2013-01-12 14:01:00,
2013-01-12 09:06:00,55.5,55.5,30.19,SSW,195,4.3,5.2,100,0.00, ,,-99.99,VWS V12.07,2013-01-12 14:06:00,
2013-01-12 09:12:00,56.2,56.2,30.19,SW,220,0.0,5.2,100,0.00, ,,-99.99,VWS V12.07,2013-01-12 14:12:00,
2013-01-12 09:17:00,56.3,56.3,30.19,SW,220,0.0,0.0,100,0.00, ,,-99.99,VWS V12.07,2013-01-12 14:17:00,
2013-01-12 09:22:00,56.5,56.5,30.19,SW,220,0.0,0.0,100,0.00, ,,-99.99,VWS V12.07,2013-01-12 14:22:00,
2013-01-12 09:28:00,57.3,57.3,30.20,SW,220,0.0,0.0,100,0.00, ,,-99.99,VWS V12.07,2013-01-12 14:28:00,
2013-01-12 09:33:00,58.2,58.2,30.20,SW,220,0.0,0.0,100,0.00, ,,-99.99,VWS V12.07,2013-01-12 14:33:00,
2013-01-12 09:39:00,58.3,58.3,30.20,SW,230,0.0,0.0,100,0.00, ,,-99.99,VWS V12.07,2013-01-12 14:39:00,
2013-01-12 09:44:00,58.3,58.3,30.20,SW,230,0.0,0.0,100,0.00, ,,-99.99,VWS V12.07,2013-01-12 14:44:00,
2013-01-12 09:49:00,58.2,58.2,30.20,SW,230,0.0,0.0,100,0.00, ,,-99.99,VWS V12.07,2013-01-12 14:49:00,
2013-01-12 09:54:00,58.7,58.7,30.20,SW,230,0.0,0.0,100,0.00, ,,-99.99,VWS V12.07,2013-01-12 14:54:00,
2013-01-12 09:59:00,58.4,58.4,30.20,SW,230,0.0,0.0,100,0.00, ,,-99.99,VWS V12.07,2013-01-12 14:59:00,
2013-01-12 10:04:00,58.4,58.4,30.20,SW,230,0.0,0.0,100,0.00, ,,-99.99,VWS V12.07,2013-01-12 15:04:00,
2013-01-12 10:09:00,57.7,57.7,30.20,SW,230,0.0,0.0,100,0.00, ,,-99.99,VWS V12.07,2013-01-12 15:09:00,
2013-01-12 10:14:00,57.4,57.4,30.20,SW,230,0.0,0.0,100,0.00, ,,-99.99,VWS V12.07,2013-01-12 15:14:00,
2013-01-12 10:19:00,58.3,58.3,30.20,SSW,213,0.0,3.4,100,0.00, ,,-99.99,VWS V12.07,2013-01-12 15:19:00,
2013-01-12 10:24:00,58.0,58.0,30.20,SSW,213,0.0,3.4,100,0.00, ,,-99.99,VWS V12.07,2013-01-12 15:24:00,
2013-01-12 10:29:00,57.3,57.3,30.19,SSW,213,0.0,3.4,100,0.00, ,,-99.99,VWS V12.07,2013-01-12 15:29:00,
2013-01-12 10:34:00,57.3,57.3,30.19,SSW,213,0.0,3.4,100,0.00, ,,-99.99,VWS V12.07,2013-01-12 15:34:00,
2013-01-12 10:39:00,57.3,57.3,30.19,SSW,213,0.0,0.0,100,0.00, ,,-99.99,VWS V12.07,2013-01-12 15:39:00,
2013-01-12 10:44:00,57.8,57.8,30.19,SSW,213,0.0,0.0,100,0.00, ,,-99.99,VWS V12.07,2013-01-12 15:44:00,
2013-01-12 10:49:00,58.1,58.1,30.18,SSW,213,0.0,0.0,100,0.00, ,,-99.99,VWS V12.07,2013-01-12 15:49:00,
2013-01-12 10:54:00,57.6,57.6,30.19,SSW,213,0.0,0.0,100,0.00, ,,-99.99,VWS V12.07,2013-01-12 15:54:00,
2013-01-12 10:59:00,57.5,57.5,30.18,SW,219,5.3,5.8,100,0.00, ,,-99.99,VWS V12.07,2013-01-12 15:59:00,
2013-01-12 11:04:00,58.0,58.0,30.18,SSW,212,0.0,7.7,100,0.00, ,,-99.99,VWS V12.07,2013-01-12 16:04:00,
2013-01-12 11:09:00,58.0,58.0,30.18,SSW,211,4.4,7.7,100,0.00, ,,-99.99,VWS V12.07,2013-01-12 16:09:00,
2013-01-12 11:14:00,57.0,57.0,30.18,SSW,209,5.9,7.7,100,0.00, ,,-99.99,VWS V12.07,2013-01-12 16:14:00,
2013-01-12 11:19:00,57.2,57.2,30.17,SSW,211,7.0,7.3,100,0.00, ,,-99.99,VWS V12.07,2013-01-12 16:19:00,
2013-01-12 11:24:00,57.7,57.7,30.17,SW,215,5.4,7.3,100,0.00, ,,-99.99,VWS V12.07,2013-01-12 16:24:00,
2013-01-12 11:29:00,57.6,57.6,30.17,SSW,205,6.5,7.3,100,0.00, ,,-99.99,VWS V12.07,2013-01-12 16:29:00,
2013-01-12 11:34:00,58.1,58.1,30.16,SW,229,4.8,7.3,100,0.00, ,,-99.99,VWS V12.07,2013-01-12 16:34:00,
2013-01-12 11:39:00,57.8,57.8,30.16,SW,218,5.8,6.0,100,0.00, ,,-99.99,VWS V12.07,2013-01-12 16:39:00,
2013-01-12 11:44:00,58.3,58.3,30.16,SSW,212,4.4,6.0,100,0.00, ,,-99.99,VWS V12.07,2013-01-12 16:44:00,
2013-01-12 11:49:00,58.5,58.5,30.15,SSW,212,5.8,6.4,100,0.00, ,,-99.99,VWS V12.07,2013-01-12 16:49:00,
2013-01-12 11:54:00,58.8,58.8,30.15,SSW,204,0.0,6.4,100,0.00, ,,-99.99,VWS V12.07,2013-01-12 16:54:00,
2013-01-12 11:59:00,58.5,58.5,30.15,SW,225,5.8,6.4,100,0.00, ,,-99.99,VWS V12.07,2013-01-12 16:59:00,
2013-01-12 12:04:00,58.6,58.6,30.15,SW,226,5.8,7.1,100,0.00, ,,-99.99,VWS V12.07,2013-01-12 17:04:00,
2013-01-12 12:09:00,59.1,59.1,30.15,SSW,211,4.7,7.1,100,0.00, ,,-99.99,VWS V12.07,2013-01-12 17:09:00,
2013-01-12 12:14:00,59.3,59.3,30.15,South,191,0.0,7.1,100,0.00, ,,-99.99,VWS V12.07,2013-01-12 17:14:00,
2013-01-12 12:19:00,59.1,59.1,30.15,SW,220,6.8,7.2,100,0.00, ,,-99.99,VWS V12.07,2013-01-12 17:19:00,
2013-01-12 12:24:00,59.4,59.4,30.14,WSW,239,6.2,7.8,100,0.00, ,,-99.99,VWS V12.07,2013-01-12 17:24:00,
2013-01-12 12:29:00,59.5,59.5,30.14,SW,229,6.3,8.4,100,0.00, ,,-99.99,VWS V12.07,2013-01-12 17:29:00,
2013-01-12 12:34:00,59.5,59.5,30.14,SW,226,5.3,8.4,100,0.00, ,,-99.99,VWS V12.07,2013-01-12 17:34:00,
2013-01-12 12:39:00,59.4,59.4,30.14,SW,228,5.8,7.4,100,0.00, ,,-99.99,VWS V12.07,2013-01-12 17:39:00,
2013-01-12 12:44:00,59.1,59.1,30.14,WSW,243,6.6,8.6,100,0.00, ,,-99.99,VWS V12.07,2013-01-12 17:44:00,
2013-01-12 12:49:00,58.8,58.8,30.14,SW,220,9.4,9.6,100,0.00, ,,-99.99,VWS V12.07,2013-01-12 17:49:00,
2013-01-12 12:54:00,58.6,58.6,30.14,SW,216,7.5,9.6,100,0.00, ,,-99.99,VWS V12.07,2013-01-12 17:54:00,
2013-01-12 12:59:00,58.2,58.2,30.14,SW,223,7.0,8.1,100,0.00, ,,-99.99,VWS V12.07,2013-01-12 17:59:00,
2013-01-12 13:04:00,58.3,58.3,30.13,SW,222,8.1,8.8,100,0.00, ,,-99.99,VWS V12.07,2013-01-12 18:04:00,
2013-01-12 13:09:00,58.5,58.5,30.13,SSW,205,8.2,9.4,100,0.00, ,,-99.99,VWS V12.07,2013-01-12 18:09:00,
2013-01-12 13:14:00,58.2,58.2,30.13,SW,225,7.1,9.9,100,0.00, ,,-99.99,VWS V12.07,2013-01-12 18:14:00,
2013-01-12 13:19:00,58.1,58.1,30.13,SW,219,8.8,9.6,100,0.00, ,,-99.99,VWS V12.07,2013-01-12 18:19:00,
2013-01-12 13:24:00,58.7,58.7,30.13,SW,222,9.0,9.9,100,0.00, ,,-99.99,VWS V12.07,2013-01-12 18:24:00,
2013-01-12 13:29:00,58.7,58.7,30.13,SSW,208,7.5,9.9,100,0.00, ,,-99.99,VWS V12.07,2013-01-12 18:29:00,
2013-01-12 13:34:00,59.0,59.0,30.13,SSW,201,6.3,9.9,100,0.00, ,,-99.99,VWS V12.07,2013-01-12 18:34:00,
2013-01-12 13:39:00,58.8,58.8,30.13,SW,218,6.5,9.3,100,0.00, ,,-99.99,VWS V12.07,2013-01-12 18:39:00,
2013-01-12 13:44:00,59.4,59.4,30.13,SW,215,7.3,9.3,100,0.00, ,,-99.99,VWS V12.07,2013-01-12 18:44:00,
2013-01-12 13:49:00,58.9,58.9,30.13,SW,216,6.8,9.3,100,0.00, ,,-99.99,VWS V12.07,2013-01-12 18:49:00,
2013-01-12 13:54:00,59.2,59.2,30.12,SW,225,7.5,9.3,100,0.00, ,,-99.99,VWS V12.07,2013-01-12 18:54:00,
2013-01-12 13:59:00,59.0,59.0,30.12,SSW,199,6.8,8.8,100,0.00, ,,-99.99,VWS V12.07,2013-01-12 18:59:00,
2013-01-12 14:04:00,59.4,59.4,30.13,SW,218,8.9,9.6,100,0.00, ,,-99.99,VWS V12.07,2013-01-12 19:04:00,
2013-01-12 14:09:00,59.4,59.4,30.13,SW,225,7.1,9.9,100,0.00, ,,-99.99,VWS V12.07,2013-01-12 19:09:00,
2013-01-12 14:14:00,59.4,59.4,30.13,SW,226,9.1,9.9,100,0.00, ,,-99.99,VWS V12.07,2013-01-12 19:14:00,
2013-01-12 14:19:00,59.4,59.4,30.13,SSW,206,7.6,9.8,100,0.00, ,,-99.99,VWS V12.07,2013-01-12 19:19:00,
2013-01-12 14:24:00,59.3,59.3,30.13,SW,216,7.1,9.8,100,0.00, ,,-99.99,VWS V12.07,2013-01-12 19:24:00,
2013-01-12 14:29:00,58.9,58.9,30.13,SW,220,7.0,9.8,100,0.00, ,,-99.99,VWS V12.07,2013-01-12 19:29:00,
2013-01-12 14:34:00,59.3,59.3,30.12,SW,228,7.0,9.8,100,0.00, ,,-99.99,VWS V12.07,2013-01-12 19:34:00,
2013-01-12 14:39:00,59.3,59.3,30.13,SW,222,7.1,7.5,100,0.00, ,,-99.99,VWS V12.07,2013-01-12 19:39:00,
2013-01-12 14:44:00,59.5,59.5,30.13,SW,216,8.0,8.5,100,0.00, ,,-99.99,VWS V12.07,2013-01-12 19:44:00,
2013-01-12 14:49:00,59.5,59.5,30.12,SW,226,6.6,8.6,100,0.00, ,,-99.99,VWS V12.07,2013-01-12 19:49:00,
2013-01-12 14:55:00,59.3,59.3,30.12,SSW,211,6.7,8.6,100,0.00, ,,-99.99,VWS V12.07,2013-01-12 19:55:00,
2013-01-12 15:00:00,59.2,59.2,30.12,SW,218,5.8,6.6,100,0.00, ,,-99.99,VWS V12.07,2013-01-12 20:00:00,
2013-01-12 15:05:00,59.4,59.4,30.12,SSW,205,4.6,6.6,100,0.00, ,,-99.99,VWS V12.07,2013-01-12 20:05:00,
2013-01-12 15:10:00,60.0,60.0,30.12,SW,215,8.1,9.3,100,0.00, ,,-99.99,VWS V12.07,2013-01-12 20:10:00,
2013-01-12 15:15:00,59.6,59.5,30.12,SW,220,6.6,9.3,100,0.00, ,,-99.99,VWS V12.07,2013-01-12 20:15:00,
2013-01-12 15:20:00,59.6,59.5,30.12,SW,219,8.0,8.7,100,0.00, ,,-99.99,VWS V12.07,2013-01-12 20:20:00,
2013-01-12 15:25:00,59.5,59.4,30.12,SSW,211,8.1,9.3,100,0.00, ,,-99.99,VWS V12.07,2013-01-12 20:25:00,
2013-01-12 15:30:00,60.0,59.9,30.12,SW,225,7.8,9.8,100,0.00, ,,-99.99,VWS V12.07,2013-01-12 20:30:00,
2013-01-12 15:35:00,60.1,59.8,30.12,SW,223,7.5,9.8,99,0.00, ,,-99.99,VWS V12.07,2013-01-12 20:35:00,
2013-01-12 15:40:00,59.9,59.6,30.12,SSW,211,6.4,8.1,99,0.00, ,,-99.99,VWS V12.07,2013-01-12 20:40:00,
2013-01-12 15:45:00,60.1,59.8,30.13,SSW,211,6.9,8.1,99,0.00, ,,-99.99,VWS V12.07,2013-01-12 20:45:00,
2013-01-12 15:50:00,59.7,59.4,30.13,SSW,212,6.1,8.1,99,0.00, ,,-99.99,VWS V12.07,2013-01-12 20:50:00,
2013-01-12 15:55:00,60.0,59.9,30.13,SW,216,6.8,8.1,100,0.00, ,,-99.99,VWS V12.07,2013-01-12 20:55:00,
2013-01-12 16:00:00,60.1,59.8,30.13,SSW,211,6.3,7.5,99,0.00, ,,-99.99,VWS V12.07,2013-01-12 21:00:00,
2013-01-12 16:05:00,59.8,59.7,30.13,SSW,212,6.5,7.5,100,0.00, ,,-99.99,VWS V12.07,2013-01-12 21:05:00,
2013-01-12 16:10:00,60.3,60.1,30.13,SSW,204,5.0,7.5,99,0.00, ,,-99.99,VWS V12.07,2013-01-12 21:10:00,
2013-01-12 16:15:00,60.1,59.8,30.13,SW,223,6.7,7.5,99,0.00, ,,-99.99,VWS V12.07,2013-01-12 21:15:00,
2013-01-12 16:20:00,60.4,60.1,30.14,SSW,195,4.6,6.5,99,0.00, ,,-99.99,VWS V12.07,2013-01-12 21:20:00,
2013-01-12 16:25:00,60.4,60.4,30.14,SSW,208,0.0,6.5,100,0.00, ,,-99.99,VWS V12.07,2013-01-12 21:25:00,
2013-01-12 16:30:00,60.6,60.6,30.14,SSW,208,0.0,6.5,100,0.00, ,,-99.99,VWS V12.07,2013-01-12 21:30:00,
2013-01-12 16:35:00,61.0,61.0,30.14,SSW,208,0.0,6.5,100,0.00, ,,-99.99,VWS V12.07,2013-01-12 21:35:00,
2013-01-12 16:40:00,61.8,61.8,30.14,SSW,208,0.0,0.0,100,0.00, ,,-99.99,VWS V12.07,2013-01-12 21:40:00,
2013-01-12 16:45:00,62.6,62.6,30.14,SSW,208,0.0,0.0,100,0.00, ,,-99.99,VWS V12.07,2013-01-12 21:45:00,
2013-01-12 16:50:00,62.9,62.8,30.14,SSW,208,0.0,0.0,100,0.00, ,,-99.99,VWS V12.07,2013-01-12 21:50:00,
2013-01-12 16:55:00,63.5,63.4,30.14,SSW,208,0.0,0.0,100,0.00, ,,-99.99,VWS V12.07,2013-01-12 21:55:00,
2013-01-12 17:00:00,62.7,62.5,30.14,SSW,208,0.0,0.0,99,0.00, ,,-99.99,VWS V12.07,2013-01-12 22:00:00,
2013-01-12 17:05:00,62.9,62.2,30.14,SSW,208,0.0,0.0,98,0.00, ,,-99.99,VWS V12.07,2013-01-12 22:05:00,
2013-01-12 17:10:00,62.2,61.2,30.14,SSW,208,0.0,0.0,96,0.00, ,,-99.99,VWS V12.07,2013-01-12 22:10:00,
2013-01-12 17:15:00,61.9,61.2,30.14,SW,215,3.5,5.2,98,0.00, ,,-99.99,VWS V12.07,2013-01-12 22:15:00,
2013-01-12 17:20:00,61.1,60.7,30.14,SSW,199,0.0,5.0,99,0.00, ,,-99.99,VWS V12.07,2013-01-12 22:20:00,
2013-01-12 17:25:00,61.3,61.2,30.14,NE,48,0.0,10.4,100,0.00, ,,-99.99,VWS V12.07,2013-01-12 22:25:00,
2013-01-12 17:30:00,62.4,62.3,30.14,NE,48,0.0,10.4,100,0.00, ,,-99.99,VWS V12.07,2013-01-12 22:30:00,
2013-01-12 17:35:00,62.1,61.9,30.15,NE,48,0.0,10.4,99,0.00, ,,-99.99,VWS V12.07,2013-01-12 22:35:00,
2013-01-12 17:40:00,62.4,62.2,30.15,NE,48,0.0,3.2,99,0.00, ,,-99.99,VWS V12.07,2013-01-12 22:40:00,
2013-01-12 17:45:00,62.6,62.3,30.15,NE,48,0.0,3.2,99,0.00, ,,-99.99,VWS V12.07,2013-01-12 22:45:00,
2013-01-12 17:50:00,63.1,62.8,30.14,SE,142,6.0,7.2,99,0.00, ,,-99.99,VWS V12.07,2013-01-12 22:50:00,
2013-01-12 17:55:00,63.0,62.6,30.15,East,91,3.3,8.2,98,0.00, ,,-99.99,VWS V12.07,2013-01-12 22:55:00,
2013-01-12 18:00:00,62.4,62.0,30.15,ESE,111,0.0,5.3,98,0.00, ,,-99.99,VWS V12.07,2013-01-12 23:00:00,
2013-01-12 18:05:00,61.7,61.2,30.15,ESE,111,5.2,7.6,98,0.00, ,,-99.99,VWS V12.07,2013-01-12 23:05:00,
2013-01-12 18:10:00,61.4,61.0,30.15,ESE,114,6.4,9.0,98,0.00, ,,-99.99,VWS V12.07,2013-01-12 23:10:00,
2013-01-12 18:15:00,61.3,61.1,30.15,ESE,115,6.2,9.0,99,0.00, ,,-99.99,VWS V12.07,2013-01-12 23:15:00,
2013-01-12 18:20:00,61.7,61.6,30.14,East,80,0.0,4.3,100,0.00, ,,-99.99,VWS V12.07,2013-01-12 23:20:00,
2013-01-12 18:25:00,61.4,61.3,30.14,East,80,0.0,4.3,100,0.00, ,,-99.99,VWS V12.07,2013-01-12 23:25:00,
2013-01-12 18:30:00,61.0,61.0,30.14,East,80,0.0,4.3,100,0.00, ,,-99.99,VWS V12.07,2013-01-12 23:30:00,
2013-01-12 18:35:00,60.7,60.7,30.14,East,80,0.0,4.3,100,0.00, ,,-99.99,VWS V12.07,2013-01-12 23:35:00,
2013-01-12 18:40:00,60.4,60.4,30.15,East,80,0.0,0.0,100,0.00, ,,-99.99,VWS V12.07,2013-01-12 23:40:00,
2013-01-12 18:45:00,60.6,60.6,30.15,East,80,0.0,0.0,100,0.00, ,,-99.99,VWS V12.07,2013-01-12 23:45:00,
2013-01-12 18:50:00,60.7,60.7,30.15,East,80,0.0,0.0,100,0.00, ,,-99.99,VWS V12.07,2013-01-12 23:50:00,
2013-01-12 18:55:00,60.9,60.9,30.15,ENE,64,8.3,9.2,100,0.00, ,,-99.99,VWS V12.07,2013-01-12 23:55:00,
2013-01-12 19:00:00,60.5,60.5,30.15,NE,55,5.2,8.2,100,0.00, ,,-99.99,VWS V12.07,2013-01-13 00:00:00,
2013-01-12 19:05:00,60.4,60.4,30.15,NE,35,0.0,8.2,100,0.00, ,,-99.99,VWS V12.07,2013-01-13 00:05:00,
2013-01-12 19:10:00,60.4,60.4,30.14,ENE,60,6.5,8.2,100,0.00, ,,-99.99,VWS V12.07,2013-01-13 00:10:00,
2013-01-12 19:15:00,60.4,60.4,30.15,NE,53,0.0,8.2,100,0.00, ,,-99.99,VWS V12.07,2013-01-13 00:15:00,
2013-01-12 19:20:00,60.3,60.3,30.15,NE,53,0.0,0.0,100,0.00, ,,-99.99,VWS V12.07,2013-01-13 00:20:00,
2013-01-12 19:25:00,60.4,60.4,30.15,NE,53,0.0,0.0,100,0.00, ,,-99.99,VWS V12.07,2013-01-13 00:25:00,
2013-01-12 19:30:00,60.5,60.5,30.14,NE,53,0.0,0.0,100,0.00, ,,-99.99,VWS V12.07,2013-01-13 00:30:00,
2013-01-12 19:35:00,60.6,60.6,30.14,NE,53,0.0,0.0,100,0.00, ,,-99.99,VWS V12.07,2013-01-13 00:35:00,
2013-01-12 19:40:00,60.2,60.2,30.14,NE,53,0.0,0.0,100,0.00, ,,-99.99,VWS V12.07,2013-01-13 00:40:00,
2013-01-12 19:45:00,60.3,60.3,30.14,NE,53,0.0,0.0,100,0.00, ,,-99.99,VWS V12.07,2013-01-13 00:45:00,
2013-01-12 19:50:00,60.2,60.2,30.14,NE,53,0.0,0.0,100,0.00, ,,-99.99,VWS V12.07,2013-01-13 00:50:00,
2013-01-12 19:55:00,60.3,60.3,30.14,NE,53,0.0,0.0,100,0.00, ,,-99.99,VWS V12.07,2013-01-13 00:55:00,
2013-01-12 20:00:00,60.2,60.2,30.14,NE,53,0.0,0.0,100,0.00, ,,-99.99,VWS V12.07,2013-01-13 01:00:00,
2013-01-12 20:06:00,60.2,60.2,30.14,NE,53,0.0,0.0,100,0.00, ,,-99.99,VWS V12.07,2013-01-13 01:06:00,
2013-01-12 20:11:00,60.3,60.3,30.14,NE,53,0.0,0.0,100,0.00, ,,-99.99,VWS V12.07,2013-01-13 01:11:00,
2013-01-12 20:16:00,60.2,60.2,30.14,NE,53,0.0,0.0,100,0.00, ,,-99.99,VWS V12.07,2013-01-13 01:16:00,
2013-01-12 20:21:00,60.2,60.2,30.14,NE,53,0.0,0.0,100,0.00, ,,-99.99,VWS V12.07,2013-01-13 01:21:00,
2013-01-12 20:27:00,59.6,59.6,30.14,NE,53,0.0,0.0,100,0.00, ,,-99.99,VWS V12.07,2013-01-13 01:27:00,
2013-01-12 20:32:00,59.1,59.1,30.14,NE,53,0.0,0.0,100,0.00, ,,-99.99,VWS V12.07,2013-01-13 01:32:00,
2013-01-12 20:38:00,58.4,58.4,30.14,NE,53,0.0,0.0,100,0.00, ,,-99.99,VWS V12.07,2013-01-13 01:38:00,
2013-01-12 20:43:00,58.5,58.5,30.14,NE,53,0.0,0.0,100,0.00, ,,-99.99,VWS V12.07,2013-01-13 01:43:00,
2013-01-12 20:49:00,58.8,58.8,30.14,NE,53,0.0,0.0,100,0.00, ,,-99.99,VWS V12.07,2013-01-13 01:49:00,
2013-01-12 20:54:00,59.5,59.5,30.14,NE,53,0.0,0.0,100,0.00, ,,-99.99,VWS V12.07,2013-01-13 01:54:00,
2013-01-12 20:59:00,59.5,59.5,30.14,NE,53,0.0,0.0,100,0.00, ,,-99.99,VWS V12.07,2013-01-13 01:59:00,
2013-01-12 21:04:00,59.5,59.5,30.14,NE,53,0.0,0.0,100,0.00, ,,-99.99,VWS V12.07,2013-01-13 02:04:00,
2013-01-12 21:09:00,59.5,59.5,30.14,NE,43,3.4,3.5,100,0.00, ,,-99.99,VWS V12.07,2013-01-13 02:09:00,
2013-01-12 21:14:00,59.3,59.3,30.14,NNE,31,0.0,5.3,100,0.00, ,,-99.99,VWS V12.07,2013-01-13 02:14:00,
2013-01-12 21:19:00,59.1,59.1,30.14,NNE,32,0.0,0.0,100,0.00, ,,-99.99,VWS V12.07,2013-01-13 02:19:00,
2013-01-12 21:24:00,58.5,58.5,30.14,NNE,32,0.0,0.0,100,0.00, ,,-99.99,VWS V12.07,2013-01-13 02:24:00,
2013-01-12 21:29:00,58.9,58.9,30.14,NNE,32,0.0,0.0,100,0.00, ,,-99.99,VWS V12.07,2013-01-13 02:29:00,
2013-01-12 21:34:00,58.4,58.4,30.14,NNE,32,0.0,0.0,100,0.00, ,,-99.99,VWS V12.07,2013-01-13 02:34:00,
2013-01-12 21:39:00,58.6,58.6,30.14,NNE,32,0.0,0.0,100,0.00, ,,-99.99,VWS V12.07,2013-01-13 02:39:00,
2013-01-12 21:44:00,58.1,58.1,30.14,NNE,32,0.0,0.0,100,0.00, ,,-99.99,VWS V12.07,2013-01-13 02:44:00,
2013-01-12 21:49:00,58.2,58.2,30.14,NNE,32,0.0,0.0,100,0.00, ,,-99.99,VWS V12.07,2013-01-13 02:49:00,
2013-01-12 21:54:00,58.2,58.2,30.14,NNE,32,0.0,0.0,100,0.00, ,,-99.99,VWS V12.07,2013-01-13 02:54:00,
2013-01-12 21:59:00,58.7,58.7,30.13,NNE,32,0.0,0.0,100,0.00, ,,-99.99,VWS V12.07,2013-01-13 02:59:00,
2013-01-12 22:04:00,59.4,59.4,30.13,NNE,32,0.0,0.0,100,0.00, ,,-99.99,VWS V12.07,2013-01-13 03:04:00,
2013-01-12 22:09:00,59.5,59.5,30.13,NNE,32,0.0,0.0,100,0.00, ,,-99.99,VWS V12.07,2013-01-13 03:09:00,
2013-01-12 22:14:00,59.5,59.5,30.13,NNE,32,0.0,0.0,100,0.00, ,,-99.99,VWS V12.07,2013-01-13 03:14:00,
2013-01-12 22:19:00,59.5,59.5,30.13,NE,53,0.0,1.4,100,0.00, ,,-99.99,VWS V12.07,2013-01-13 03:19:00,
2013-01-12 22:24:00,59.9,59.9,30.13,ENE,69,3.4,6.4,100,0.00, ,,-99.99,VWS V12.07,2013-01-13 03:24:00,
2013-01-12 22:29:00,59.7,59.7,30.13,ENE,63,0.0,6.4,100,0.00, ,,-99.99,VWS V12.07,2013-01-13 03:29:00,
2013-01-12 22:34:00,59.2,59.2,30.13,NNE,31,3.4,6.4,100,0.00, ,,-99.99,VWS V12.07,2013-01-13 03:34:00,
2013-01-12 22:39:00,58.8,58.8,30.13,NE,40,0.0,4.7,100,0.00, ,,-99.99,VWS V12.07,2013-01-13 03:39:00,
2013-01-12 22:44:00,58.2,58.2,30.13,NE,40,0.0,4.7,100,0.00, ,,-99.99,VWS V12.07,2013-01-13 03:44:00,
2013-01-12 22:49:00,57.9,57.9,30.14,NE,40,0.0,4.7,100,0.00, ,,-99.99,VWS V12.07,2013-01-13 03:49:00,
2013-01-12 22:54:00,58.0,58.0,30.14,NE,40,0.0,4.7,100,0.00, ,,-99.99,VWS V12.07,2013-01-13 03:54:00,
2013-01-12 22:59:00,58.2,58.2,30.13,NE,40,0.0,0.0,100,0.00, ,,-99.99,VWS V12.07,2013-01-13 03:59:00,
2013-01-12 23:04:00,58.7,58.7,30.13,NE,40,0.0,0.0,100,0.00, ,,-99.99,VWS V12.07,2013-01-13 04:04:00,
2013-01-12 23:09:00,58.8,58.8,30.13,NNE,28,4.7,6.6,100,0.00, ,,-99.99,VWS V12.07,2013-01-13 04:09:00,
2013-01-12 23:14:00,58.8,58.8,30.13,ENE,59,6.3,7.0,100,0.00, ,,-99.99,VWS V12.07,2013-01-13 04:14:00,
2013-01-12 23:19:00,59.0,59.0,30.13,ENE,64,6.4,7.5,100,0.00, ,,-99.99,VWS V12.07,2013-01-13 04:19:00,
2013-01-12 23:24:00,58.9,58.9,30.14,ENE,67,5.1,7.5,100,0.00, ,,-99.99,VWS V12.07,2013-01-13 04:24:00,
2013-01-12 23:29:00,58.8,58.8,30.14,ENE,69,3.0,7.5,100,0.00, ,,-99.99,VWS V12.07,2013-01-13 04:29:00,
2013-01-12 23:34:00,59.5,59.5,30.14,NE,56,0.0,7.5,100,0.00, ,,-99.99,VWS V12.07,2013-01-13 04:34:00,
2013-01-12 23:39:00,59.1,59.1,30.13,NE,56,0.0,0.0,100,0.00, ,,-99.99,VWS V12.07,2013-01-13 04:39:00,
2013-01-12 23:44:00,59.1,59.1,30.13,NE,56,0.0,0.0,100,0.00, ,,-99.99,VWS V12.07,2013-01-13 04:44:00,
2013-01-12 23:49:00,58.8,58.8,30.14,NE,56,0.0,0.0,100,0.00, ,,-99.99,VWS V12.07,2013-01-13 04:49:00,
2013-01-12 23:55:00,58.7,58.7,30.14,NE,56,0.0,0.0,100,0.00, ,,-99.99,VWS V12.07,2013-01-13 04:55:00,